Time;durP1;ratioP1;P1;durP2;ratioP2;P2;SDS_P1;SDS_P2;PMS_P1;PMS_P2;Temp;Humidity;BMP_temperature;BMP_pressure;BME280_temperature;BME280_humidity;BME280_pressure;Samples;Min_cycle;Max_cycle;Signal;HPM_P1;HPM_P2
2022/01/20 00:00:16;;;;;;;6.75;3.15;;;;;;;1.45;76.96;101668.09;5001546;28;20054;-56
2022/01/20 00:02:46;;;;;;;8.27;3.17;;;;;;;1.45;78.33;101668.09;4997864;28;20062;-55
2022/01/20 00:06:01;;;;;;;11.13;2.80;;;;;;;1.43;77.54;101669.66;5003512;28;20046;-56
2022/01/20 00:08:32;;;;;;;6.57;2.78;;;;;;;1.39;78.14;101673.72;4999363;28;20103;-54
2022/01/20 00:27:32;;;;;;;4.95;2.65;;;;;;;1.28;77.91;101680.69;5019737;28;20116;-58
2022/01/20 00:33:15;;;;;;;15.68;4.15;;;;;;;1.27;78.35;101695.13;5006569;28;20061;-59
2022/01/20 00:37:14;;;;;;;5.93;3.78;;;;;;;1.25;78.08;101691.59;5010311;28;20053;-58
2022/01/20 00:38:21;;;;;;;5.70;2.70;;;;;;;1.24;77.76;101694.94;5006871;28;20042;-56
2022/01/20 00:40:48;;;;;;;12.07;3.83;;;;;;;1.25;78.33;101708.59;5008558;28;20057;-58
2022/01/20 00:43:15;;;;;;;12.63;3.13;;;;;;;1.24;78.47;101700.06;5006903;28;20046;-56
2022/01/20 00:45:41;;;;;;;7.45;3.35;;;;;;;1.22;78.74;101701.59;5003434;28;20046;-55
2022/01/20 00:48:08;;;;;;;14.85;3.67;;;;;;;1.21;77.33;101701.53;5007037;28;20108;-57
2022/01/20 00:50:38;;;;;;;18.08;3.20;;;;;;;1.20;77.50;101708.31;5004145;28;20799;-58
2022/01/20 00:53:07;;;;;;;16.13;3.58;;;;;;;1.20;79.00;101708.31;5008660;28;20137;-56
2022/01/20 00:55:37;;;;;;;6.28;2.08;;;;;;;1.18;78.19;101707.31;5006924;28;20441;-59
2022/01/20 00:58:04;;;;;;;8.73;2.88;;;;;;;1.19;78.14;101706.53;5004660;28;20041;-58
2022/01/20 01:00:34;;;;;;;11.02;3.22;;;;;;;1.19;78.63;101701.44;5008106;28;20096;-56
2022/01/20 01:03:02;;;;;;;;;;;;;;;1.14;78.80;101702.81;5003824;28;20053;-53
2022/01/20 01:05:29;;;;;;;16.05;3.85;;;;;;;1.15;78.14;101702.91;5006360;28;19951;-56
2022/01/20 01:07:56;;;;;;;11.70;3.00;;;;;;;1.14;78.75;101707.91;5004638;28;20516;-54
2022/01/20 01:10:28;;;;;;;5.15;2.55;;;;;;;1.14;77.69;101718.13;5008419;28;20044;-57
2022/01/20 01:13:02;;;;;;;10.68;2.72;;;;;;;1.11;78.82;101713.72;5007402;28;20038;-59
2022/01/20 01:15:34;;;;;;;12.00;2.90;;;;;;;1.11;78.06;101723.91;5004671;28;20439;-57
2022/01/20 01:21:15;;;;;;;10.25;3.60;;;;;;;1.10;78.78;101726.38;5005439;28;20466;-57
2022/01/20 01:23:41;;;;;;;4.93;2.45;;;;;;;1.06;77.80;101735.50;5001853;28;20041;-56
2022/01/20 01:26:12;;;;;;;8.02;2.92;;;;;;;1.07;78.71;101736.38;5006036;28;20560;-55
2022/01/20 01:28:40;;;;;;;8.25;2.70;;;;;;;1.05;78.88;101743.06;5000731;28;20092;-57
2022/01/20 01:31:29;;;;;;;9.45;2.80;;;;;;;1.06;78.56;101744.81;5003044;28;20037;-58
2022/01/20 01:33:57;;;;;;;12.02;3.22;;;;;;;1.05;78.56;101743.06;5006620;28;20046;-53
2022/01/20 01:36:27;;;;;;;9.98;3.88;;;;;;;1.05;77.73;101737.97;5004926;28;20705;-56
2022/01/20 01:38:54;;;;;;;10.52;2.97;;;;;;;1.05;77.90;101743.06;5004683;28;20046;-56
2022/01/20 01:41:35;;;;;;;5.68;2.90;;;;;;;1.02;78.64;101752.28;5003974;28;21494;-54
2022/01/20 01:44:06;;;;;;;4.20;2.55;;;;;;;1.03;78.98;101758.28;5004274;28;20077;-52
2022/01/20 01:46:35;;;;;;;9.35;3.25;;;;;;;1.01;78.14;101753.06;5003234;28;20065;-54
2022/01/20 01:49:04;;;;;;;8.98;3.00;;;;;;;1.01;78.50;101755.63;5003641;28;20140;-55
2022/01/20 01:51:32;;;;;;;8.85;2.80;;;;;;;1.00;78.61;101755.53;5008846;28;20077;-57
2022/01/20 01:53:58;;;;;;;9.35;2.53;;;;;;;1.01;77.86;101752.19;5002025;28;20045;-58
2022/01/20 01:56:25;;;;;;;5.10;3.45;;;;;;;0.99;78.16;101752.13;5007579;28;20046;-54
2022/01/20 01:58:53;;;;;;;8.80;2.70;;;;;;;0.98;78.62;101742.66;5005523;28;20108;-55
2022/01/20 02:01:20;;;;;;;6.95;1.05;;;;;;;0.98;78.98;101736.69;5005890;28;20637;-54
2022/01/20 02:03:57;;;;;;;9.57;2.70;;;;;;;0.97;77.38;101740.91;5008616;28;20037;-56
2022/01/20 02:06:46;;;;;;;7.78;2.75;;;;;;;0.96;78.47;101744.25;5001014;28;20120;-54
2022/01/20 02:09:25;;;;;;;8.38;1.98;;;;;;;0.95;77.95;101741.59;5002742;28;20049;-51
2022/01/20 02:20:14;;;;;;;7.70;2.38;;;;;;;0.88;77.70;101760.75;5003061;28;20053;-56
2022/01/20 02:22:41;;;;;;;12.77;3.10;;;;;;;0.88;78.56;101745.44;5000087;28;20042;-52
2022/01/20 02:25:28;;;;;;;7.95;3.33;;;;;;;0.84;78.50;101751.13;5007795;28;20088;-57
2022/01/20 02:27:58;;;;;;;5.85;2.60;;;;;;;0.85;78.58;101752.88;5000089;28;20743;-56
2022/01/20 02:30:26;;;;;;;7.80;2.17;;;;;;;0.80;77.74;101752.56;5003641;28;20108;-54
2022/01/20 02:32:58;;;;;;;11.88;2.20;;;;;;;0.79;78.46;101757.56;5004234;28;20105;-56
2022/01/20 02:35:27;;;;;;;12.35;2.83;;;;;;;0.76;77.57;101755.72;5002030;28;20456;-55
2022/01/20 02:38:00;;;;;;;13.23;3.20;;;;;;;0.75;77.56;101767.56;5003602;28;20050;-57
2022/01/20 02:46:07;;;;;;;7.07;2.28;;;;;;;0.72;78.29;101789.47;5019300;28;20038;-54
2022/01/20 02:48:35;;;;;;;8.30;2.65;;;;;;;0.72;78.44;101790.34;5000052;28;20124;-54
2022/01/20 02:51:02;;;;;;;6.88;2.17;;;;;;;0.72;78.40;101799.66;5002475;28;20038;-53
2022/01/20 02:53:29;;;;;;;4.88;2.03;;;;;;;0.72;77.76;101805.66;5003112;28;20676;-55
2022/01/20 02:55:55;;;;;;;4.97;1.85;;;;;;;0.74;78.89;101809.19;5000019;28;20054;-56
2022/01/20 02:58:22;;;;;;;9.90;2.65;;;;;;;0.71;78.44;101816.63;5002413;28;20049;-56
2022/01/20 03:00:48;;;;;;;11.98;2.85;;;;;;;0.72;79.39;101823.50;5001703;28;20561;-57
2022/01/20 03:03:16;;;;;;;11.55;1.48;;;;;;;0.75;78.58;101825.38;5001585;28;20044;-54
2022/01/20 03:05:43;;;;;;;10.63;2.47;;;;;;;0.73;78.61;101821.81;5001584;28;20115;-58
2022/01/20 03:08:10;;;;;;;4.28;2.67;;;;;;;0.72;78.61;101810.75;5001991;28;20374;-51
2022/01/20 03:10:38;;;;;;;8.90;3.03;;;;;;;0.70;79.07;101817.41;4987792;28;20046;-52
2022/01/20 03:13:06;;;;;;;9.23;2.83;;;;;;;0.72;78.29;101820.06;4985453;28;20056;-52
2022/01/20 03:15:35;;;;;;;5.20;2.10;;;;;;;0.69;78.01;101825.84;4986058;28;20061;-53
2022/01/20 03:18:03;;;;;;;8.55;3.15;;;;;;;0.71;78.74;101818.31;4984676;28;20038;-56
2022/01/20 03:20:32;;;;;;;9.40;2.80;;;;;;;0.72;78.35;101820.97;4984948;28;20050;-55
2022/01/20 03:23:00;;;;;;;11.77;2.83;;;;;;;0.72;77.81;101815.88;4985721;28;20050;-56
2022/01/20 03:25:28;;;;;;;11.23;2.95;;;;;;;0.72;77.47;101815.88;4998732;28;20057;-56
2022/01/20 03:27:56;;;;;;;7.32;2.05;;;;;;;0.73;77.79;101817.63;5005476;28;20389;-56
2022/01/20 03:30:28;;;;;;;15.98;2.65;;;;;;;0.73;77.35;101817.63;4999330;28;20053;-53
2022/01/20 03:32:54;;;;;;;6.97;1.95;;;;;;;0.69;78.68;101820.75;5004993;28;20104;-56
2022/01/20 03:35:21;;;;;;;16.77;3.10;;;;;;;0.68;77.79;101829.19;5002257;28;20593;-52
2022/01/20 03:37:48;;;;;;;13.90;2.60;;;;;;;0.66;77.85;101840.94;5000883;28;20054;-56
2022/01/20 03:40:15;;;;;;;5.03;2.80;;;;;;;0.65;77.47;101839.19;5003567;28;20054;-53
2022/01/20 03:42:45;;;;;;;9.77;2.13;;;;;;;0.64;78.05;101842.50;5002195;28;20049;-55
2022/01/20 03:45:12;;;;;;;8.57;2.40;;;;;;;0.62;78.53;101838.97;5004533;28;20061;-53
2022/01/20 03:47:40;;;;;;;8.10;2.17;;;;;;;0.61;77.65;101832.97;5001094;28;20049;-53
2022/01/20 03:50:10;;;;;;;9.07;1.73;;;;;;;0.60;78.54;101840.53;5006535;28;20492;-53
2022/01/20 03:52:37;;;;;;;8.13;2.10;;;;;;;0.56;78.16;101838.56;5006056;28;20049;-54
2022/01/20 03:55:05;;;;;;;8.52;2.53;;;;;;;0.57;78.52;101835.25;4998743;28;20093;-49
2022/01/20 03:57:34;;;;;;;10.65;3.05;;;;;;;0.55;77.67;101839.34;5006092;28;20105;-53
2022/01/20 04:00:02;;;;;;;8.77;2.45;;;;;;;0.54;78.42;101845.22;5002241;28;20049;-55
2022/01/20 04:02:30;;;;;;;10.68;1.23;;;;;;;0.54;78.47;101835.03;5006891;28;20398;-56
2022/01/20 04:04:56;;;;;;;13.32;2.97;;;;;;;0.52;77.63;101837.47;5004820;28;20077;-58
2022/01/20 04:07:23;;;;;;;6.50;2.50;;;;;;;0.52;77.64;101847.69;5006239;28;20053;-54
2022/01/20 04:09:50;;;;;;;5.40;2.53;;;;;;;0.49;77.66;101838.16;5003224;28;20053;-55
2022/01/20 04:12:16;;;;;;;9.25;2.42;;;;;;;0.47;77.79;101849.91;5000238;28;20047;-55
2022/01/20 04:14:47;;;;;;;8.48;2.72;;;;;;;0.47;77.39;101844.81;5004734;28;20045;-56
2022/01/20 04:17:19;;;;;;;6.20;2.22;;;;;;;0.43;77.95;101853.03;5001176;28;20108;-53
2022/01/20 04:19:46;;;;;;;6.38;2.03;;;;;;;0.42;77.64;101846.16;5004361;28;20038;-52
2022/01/20 04:22:17;;;;;;;9.55;2.53;;;;;;;0.42;78.20;101840.19;5004358;28;20073;-54
2022/01/20 04:24:47;;;;;;;9.88;1.60;;;;;;;0.38;77.49;101855.25;5003400;28;20050;-54
2022/01/20 04:27:14;;;;;;;8.38;2.80;;;;;;;0.35;77.94;101864.38;5004565;28;20049;-53
2022/01/20 04:29:40;;;;;;;5.20;2.47;;;;;;;0.32;78.36;101879.44;5002798;28;20193;-55
2022/01/20 04:32:07;;;;;;;9.82;2.92;;;;;;;0.31;77.49;101888.78;5004051;28;20054;-56
2022/01/20 04:34:34;;;;;;;7.05;3.20;;;;;;;0.30;78.19;101875.94;4998779;28;20049;-54
2022/01/20 04:37:04;;;;;;;6.20;2.67;;;;;;;0.32;78.33;101889.66;5006234;28;20045;-53
2022/01/20 04:39:34;;;;;;;6.50;2.10;;;;;;;0.29;78.42;101889.44;5003906;28;20054;-53
2022/01/20 04:42:01;;;;;;;8.85;2.17;;;;;;;0.31;77.80;101892.97;5003415;28;20054;-55
2022/01/20 04:44:40;;;;;;;7.72;2.72;;;;;;;0.29;77.53;101874.13;5003097;28;20100;-52
2022/01/20 04:47:22;;;;;;;6.50;2.25;;;;;;;0.28;77.67;101874.94;5002001;28;20046;-50
2022/01/20 04:58:09;;;;;;;5.20;1.80;;;;;;;0.25;77.44;101898.53;5003362;28;20034;-50
2022/01/20 05:00:36;;;;;;;11.02;3.42;;;;;;;0.25;77.46;101907.09;5003807;28;20049;-56
2022/01/20 05:03:05;;;;;;;8.07;2.58;;;;;;;0.28;77.64;101903.88;5007285;28;20385;-57
2022/01/20 05:05:32;;;;;;;8.23;3.38;;;;;;;0.28;77.66;101908.06;5002288;28;20137;-53
2022/01/20 05:08:00;;;;;;;4.85;2.15;;;;;;;0.28;77.68;101908.06;5008394;28;20042;-55
2022/01/20 05:10:30;;;;;;;1.70;1.60;;;;;;;0.31;77.74;101910.81;5008336;28;20525;-52
2022/01/20 05:13:06;;;;;;;8.05;2.35;;;;;;;0.35;77.32;101915.34;5002219;28;20066;-53
2022/01/20 05:15:33;;;;;;;2.38;1.08;;;;;;;0.37;76.80;101923.97;5009187;28;20469;-52
2022/01/20 05:18:00;;;;;;;9.50;1.23;;;;;;;0.37;77.51;101918.88;5004658;28;21080;-53
2022/01/20 05:20:27;;;;;;;9.07;3.17;;;;;;;0.36;76.67;101917.13;5011891;28;20069;-55
2022/01/20 05:22:55;;;;;;;3.88;2.45;;;;;;;0.37;77.20;101916.34;5008803;28;20081;-50
2022/01/20 05:25:22;;;;;;;5.00;1.95;;;;;;;0.37;77.13;101923.97;5004695;28;20054;-56
2022/01/20 05:27:49;;;;;;;6.55;2.67;;;;;;;0.36;77.20;101922.22;5004699;28;20060;-55
2022/01/20 05:30:16;;;;;;;4.65;1.63;;;;;;;0.36;76.36;101922.22;5004898;28;20046;-54
2022/01/20 05:32:42;;;;;;;7.45;1.00;;;;;;;0.37;76.97;101926.53;5007830;28;20049;-53
2022/01/20 05:35:09;;;;;;;4.45;2.00;;;;;;;0.33;76.81;101932.19;5004685;28;20050;-53
2022/01/20 05:37:36;;;;;;;8.52;2.13;;;;;;;0.33;75.93;101937.28;5006285;28;20050;-53
2022/01/20 05:40:03;;;;;;;8.40;1.67;;;;;;;0.32;76.63;101950.81;5003299;28;20045;-51
2022/01/20 05:42:30;;;;;;;7.85;2.08;;;;;;;0.33;76.52;101942.41;5008572;28;20045;-54
2022/01/20 05:44:57;;;;;;;7.18;2.65;;;;;;;0.30;76.47;101944.75;4999287;28;20043;-54
2022/01/20 05:47:29;;;;;;;4.93;2.10;;;;;;;0.33;76.62;101944.94;4988450;28;20054;-55
2022/01/20 05:49:55;;;;;;;3.90;2.35;;;;;;;0.34;76.04;101944.19;5004867;28;20054;-55
2022/01/20 05:52:22;;;;;;;9.57;2.55;;;;;;;0.34;75.96;101934.00;5005336;28;20053;-54
2022/01/20 05:54:49;;;;;;;7.60;2.05;;;;;;;0.36;75.87;101927.31;5007604;28;20045;-54
2022/01/20 05:57:16;;;;;;;6.32;1.75;;;;;;;0.35;76.20;101926.44;5003975;28;20046;-56
2022/01/20 05:59:43;;;;;;;7.55;1.95;;;;;;;0.34;75.61;101923.78;5006807;28;20046;-55
2022/01/20 06:02:27;;;;;;;5.80;1.75;;;;;;;0.35;76.18;101933.19;5004113;28;20533;-55
2022/01/20 06:04:53;;;;;;;2.65;1.77;;;;;;;0.30;76.28;101921.81;5010003;28;20050;-53
2022/01/20 06:07:21;;;;;;;4.35;2.25;;;;;;;0.31;75.74;101938.88;5001226;28;20053;-53
2022/01/20 06:09:47;;;;;;;6.00;2.15;;;;;;;0.28;76.37;101934.44;5005540;28;20050;-57
2022/01/20 06:12:14;;;;;;;5.70;1.77;;;;;;;0.29;75.60;101935.31;5008216;28;20091;-58
2022/01/20 06:14:41;;;;;;;5.35;2.22;;;;;;;0.28;75.29;101943.75;5001135;28;20097;-55
2022/01/20 06:17:09;;;;;;;3.08;1.75;;;;;;;0.29;75.94;101951.50;4986929;28;20500;-55
2022/01/20 06:19:37;;;;;;;5.95;2.00;;;;;;;0.27;75.71;101952.19;4988618;28;20053;-55
2022/01/20 06:22:03;;;;;;;5.57;1.00;;;;;;;0.24;75.47;101955.41;4987511;28;20610;-53
2022/01/20 06:24:30;;;;;;;2.20;1.60;;;;;;;0.24;76.07;101958.81;4986930;28;20061;-54
2022/01/20 06:26:57;;;;;;;2.63;1.58;;;;;;;0.23;75.56;101957.06;4987292;28;20060;-55
2022/01/20 06:29:25;;;;;;;2.95;2.25;;;;;;;0.20;75.66;101959.38;4989842;28;20046;-54
2022/01/20 06:31:52;;;;;;;3.28;2.13;;;;;;;0.20;76.40;101956.84;5008463;28;20045;-56
2022/01/20 06:34:18;;;;;;;5.72;2.17;;;;;;;0.21;76.00;101956.03;5009482;28;20046;-53
2022/01/20 06:36:45;;;;;;;3.90;1.58;;;;;;;0.19;76.62;101960.16;5002778;28;20076;-56
2022/01/20 06:39:13;;;;;;;7.47;2.22;;;;;;;0.22;76.11;101959.50;5008545;28;20045;-52
2022/01/20 06:41:40;;;;;;;3.05;1.70;;;;;;;0.19;76.10;101955.06;5003347;28;20077;-55
2022/01/20 06:44:07;;;;;;;4.50;1.65;;;;;;;0.20;75.24;101956.84;5007563;28;20049;-55
2022/01/20 06:46:34;;;;;;;5.97;2.15;;;;;;;0.16;75.50;101954.84;5001931;28;20042;-53
2022/01/20 06:49:00;;;;;;;7.10;1.23;;;;;;;0.15;76.03;101967.47;5007182;28;20477;-56
2022/01/20 06:51:28;;;;;;;4.47;1.17;;;;;;;0.10;75.23;101964.63;5006777;28;20053;-54
2022/01/20 06:53:55;;;;;;;4.93;0.90;;;;;;;0.08;75.52;101963.63;5005502;28;20100;-56
2022/01/20 06:56:21;;;;;;;6.65;2.85;;;;;;;0.05;75.50;101968.50;5008453;28;20057;-56
2022/01/20 06:59:05;;;;;;;;;;;;;;;-0.02;75.84;101975.72;5000435;28;20050;-50
2022/01/20 07:01:32;;;;;;;5.18;1.98;;;;;;;-0.02;76.03;101980.81;5003858;28;19921;-52
2022/01/20 07:03:58;;;;;;;2.75;1.92;;;;;;;-0.03;75.65;101989.19;5000374;28;20498;-53
2022/01/20 07:06:27;;;;;;;5.50;0.95;;;;;;;-0.04;75.78;101991.63;5003259;28;20096;-53
2022/01/20 07:08:58;;;;;;;6.38;1.95;;;;;;;-0.06;75.90;102009.38;5002035;28;20048;-52
2022/01/20 07:11:25;;;;;;;2.72;1.95;;;;;;;-0.08;75.35;102005.84;5002186;28;20125;-54
2022/01/20 07:13:52;;;;;;;2.17;1.80;;;;;;;-0.07;75.44;102017.78;5002895;28;20492;-54
2022/01/20 07:16:18;;;;;;;13.10;0.82;;;;;;;-0.11;75.36;102023.44;5001095;28;20101;-54
2022/01/20 07:18:45;;;;;;;10.65;2.05;;;;;;;-0.15;75.78;102024.88;5002728;28;20065;-58
2022/01/20 07:21:12;;;;;;;7.40;2.33;;;;;;;-0.16;75.53;102019.69;5001268;28;20410;-54
2022/01/20 07:23:38;;;;;;;3.83;0.75;;;;;;;-0.18;75.83;102028.84;5007083;28;20056;-55
2022/01/20 07:26:05;;;;;;;4.88;0.70;;;;;;;-0.19;76.19;102032.19;5003116;28;20667;-53
2022/01/20 07:28:31;;;;;;;4.13;1.95;;;;;;;-0.19;75.69;102044.91;5003213;28;20061;-54
2022/01/20 07:30:58;;;;;;;7.43;1.77;;;;;;;-0.20;75.78;102035.50;5002038;28;20083;-56
2022/01/20 07:33:25;;;;;;;11.15;3.42;;;;;;;-0.20;75.85;102038.06;5001103;28;20049;-55
2022/01/20 07:35:53;;;;;;;4.97;1.05;;;;;;;-0.22;75.49;102042.13;5003055;28;20058;-52
2022/01/20 07:38:21;;;;;;;5.50;2.63;;;;;;;-0.23;76.01;102051.47;5005578;28;20482;-55
2022/01/20 07:40:48;;;;;;;9.68;2.42;;;;;;;-0.26;75.58;102061.41;5004048;28;20046;-52
2022/01/20 07:43:15;;;;;;;6.13;2.28;;;;;;;-0.29;75.64;102056.09;5003180;28;20054;-55
2022/01/20 07:45:42;;;;;;;4.65;2.15;;;;;;;-0.32;75.71;102060.94;5003390;28;20053;-51
2022/01/20 07:48:11;;;;;;;4.13;1.85;;;;;;;-0.33;75.65;102065.19;4993206;28;20047;-55
2022/01/20 07:50:38;;;;;;;5.60;2.72;;;;;;;-0.36;75.69;102075.13;4985389;28;20455;-52
2022/01/20 07:53:05;;;;;;;2.72;1.83;;;;;;;-0.36;76.20;102077.66;4982062;28;20062;-55
2022/01/20 07:55:32;;;;;;;7.65;2.45;;;;;;;-0.37;75.99;102078.44;4997980;28;20046;-53
2022/01/20 07:57:59;;;;;;;8.00;2.42;;;;;;;-0.38;75.16;102079.19;5000083;28;20096;-54
2022/01/20 08:00:25;;;;;;;2.85;1.92;;;;;;;-0.41;75.34;102082.41;4995140;28;20093;-52
2022/01/20 08:02:52;;;;;;;5.30;2.13;;;;;;;-0.41;75.62;102077.31;4999655;28;20046;-52
2022/01/20 08:05:19;;;;;;;2.08;1.63;;;;;;;-0.42;75.63;102079.75;5001412;28;20081;-53
2022/01/20 08:07:46;;;;;;;5.90;2.42;;;;;;;-0.40;75.34;102088.41;4996421;28;20054;-52
2022/01/20 08:10:13;;;;;;;8.20;0.57;;;;;;;-0.39;75.57;102090.16;4998632;28;20124;-52
2022/01/20 08:12:40;;;;;;;8.65;1.98;;;;;;;-0.38;75.46;102086.84;4999705;28;20058;-55
2022/01/20 08:15:11;;;;;;;8.82;2.60;;;;;;;-0.35;75.83;102086.19;4995697;28;20053;-53
2022/01/20 08:17:40;;;;;;;7.00;2.05;;;;;;;-0.32;75.72;102087.31;5004267;28;20116;-53
2022/01/20 08:20:08;;;;;;;4.93;1.90;;;;;;;-0.25;75.50;102098.84;4997953;28;20069;-56
2022/01/20 08:22:35;;;;;;;6.22;2.15;;;;;;;-0.19;75.22;102098.41;4997414;28;20105;-55
2022/01/20 08:25:04;;;;;;;5.40;2.30;;;;;;;-0.05;75.18;102104.53;4998236;28;20058;-52
2022/01/20 08:27:31;;;;;;;5.28;3.55;;;;;;;0.10;75.08;102109.88;4995850;28;20045;-53
2022/01/20 08:29:58;;;;;;;5.90;2.63;;;;;;;0.25;74.55;102115.19;4998523;28;20046;-54
2022/01/20 08:32:25;;;;;;;5.43;2.28;;;;;;;0.41;74.73;102114.66;5004275;28;20111;-53
2022/01/20 08:34:51;;;;;;;6.28;1.95;;;;;;;0.58;74.21;102117.53;5007341;28;20050;-54
2022/01/20 08:37:18;;;;;;;3.75;2.22;;;;;;;0.76;74.78;102121.41;5005195;28;20049;-54
2022/01/20 08:39:45;;;;;;;3.33;2.08;;;;;;;0.92;73.95;102130.13;5007347;28;20038;-53
2022/01/20 08:42:12;;;;;;;5.85;2.15;;;;;;;1.19;74.26;102139.59;5001897;28;20045;-56
2022/01/20 08:44:39;;;;;;;2.92;2.00;;;;;;;1.56;72.99;102141.25;5005602;28;20116;-56
2022/01/20 08:47:15;;;;;;;9.48;2.63;;;;;;;1.90;72.62;102130.75;5002267;28;20072;-51
2022/01/20 08:49:45;;;;;;;3.63;2.63;;;;;;;2.20;71.10;102143.78;4990240;28;20486;-52
2022/01/20 08:52:14;;;;;;;8.90;2.90;;;;;;;2.53;70.56;102143.31;4984327;28;20046;-54
2022/01/20 08:54:47;;;;;;;10.07;2.05;;;;;;;2.85;70.73;102149.59;4987125;28;20051;-56
2022/01/20 08:57:14;;;;;;;5.00;3.08;;;;;;;3.18;70.18;102156.72;4986013;28;20715;-55
2022/01/20 08:59:42;;;;;;;5.00;2.53;;;;;;;3.61;68.79;102158.44;4984851;28;20054;-55
2022/01/20 09:02:10;;;;;;;7.82;2.63;;;;;;;3.99;66.65;102166.66;4984108;28;20046;-56
2022/01/20 09:04:38;;;;;;;6.13;2.42;;;;;;;4.46;66.08;102165.03;4988745;28;20449;-54
2022/01/20 09:07:04;;;;;;;9.10;3.65;;;;;;;4.79;64.16;102169.41;4987717;28;20072;-54
2022/01/20 09:09:39;;;;;;;4.25;1.90;;;;;;;5.00;64.19;102169.69;4989499;28;20046;-54
2022/01/20 09:15:27;;;;;;;6.07;2.75;;;;;;;5.13;63.48;102171.25;4987314;28;20050;-55
2022/01/20 09:17:43;;;;;;;10.15;2.65;;;;;;;6.20;63.67;102192.13;4980152;28;20060;-56
2022/01/20 09:20:11;;;;;;;5.50;2.88;;;;;;;6.73;63.56;102192.09;4982405;28;20050;-55
2022/01/20 09:22:38;;;;;;;4.78;2.40;;;;;;;7.26;61.94;102189.41;5000586;28;20049;-55
2022/01/20 09:25:07;;;;;;;5.97;2.35;;;;;;;7.41;60.81;102186.63;5005434;28;20112;-55
2022/01/20 09:27:33;;;;;;;3.78;2.70;;;;;;;7.41;60.08;102190.09;5004189;28;20557;-55
2022/01/20 09:30:02;;;;;;;7.78;2.70;;;;;;;7.51;60.06;102193.06;5004670;28;20058;-55
2022/01/20 09:32:31;;;;;;;6.22;2.35;;;;;;;7.59;59.40;102192.59;5003119;28;20068;-53
2022/01/20 09:34:57;;;;;;;12.10;3.15;;;;;;;7.88;57.70;102198.97;5001950;28;20069;-53
2022/01/20 09:37:24;;;;;;;9.63;2.08;;;;;;;8.31;57.49;102210.22;5003347;28;20613;-54
2022/01/20 09:39:51;;;;;;;6.60;3.33;;;;;;;8.69;56.87;102216.13;5007058;28;20046;-53
2022/01/20 09:42:19;;;;;;;4.45;2.67;;;;;;;9.11;55.36;102219.41;5003437;28;20046;-53
2022/01/20 09:44:47;;;;;;;8.43;3.05;;;;;;;9.48;54.90;102231.16;5000361;28;20181;-55
2022/01/20 09:47:17;;;;;;;9.15;2.63;;;;;;;9.79;53.53;102227.94;5001743;28;20062;-54
2022/01/20 09:49:44;;;;;;;6.85;3.83;;;;;;;10.15;53.16;102248.16;4996287;28;20054;-56
2022/01/20 09:52:10;;;;;;;10.23;3.15;;;;;;;10.52;52.32;102239.06;5002382;28;20097;-50
2022/01/20 09:54:38;;;;;;;7.78;2.78;;;;;;;10.70;49.91;102237.91;5003697;28;20054;-55
2022/01/20 09:57:05;;;;;;;6.78;3.05;;;;;;;10.93;49.50;102241.22;5006963;28;20057;-57
2022/01/20 09:59:32;;;;;;;8.43;4.32;;;;;;;11.20;49.55;102229.03;5007212;28;20050;-57
2022/01/20 10:01:59;;;;;;;7.55;2.75;;;;;;;11.40;48.96;102241.72;5002611;28;20096;-58
2022/01/20 10:04:32;;;;;;;6.25;2.80;;;;;;;11.47;45.68;102238.47;5005326;28;20519;-57
2022/01/20 10:07:03;;;;;;;5.03;2.75;;;;;;;11.74;46.67;102245.28;5002961;28;20050;-57
2022/01/20 10:09:34;;;;;;;8.63;2.40;;;;;;;11.73;44.69;102235.75;5007487;28;20045;-58
2022/01/20 10:12:03;;;;;;;5.65;3.05;;;;;;;11.83;46.60;102248.13;5002734;28;20046;-55
2022/01/20 10:14:50;;;;;;;6.35;2.88;;;;;;;11.85;43.76;102250.75;5006945;28;20085;-58
2022/01/20 10:17:21;;;;;;;6.28;3.00;;;;;;;12.01;44.38;102257.25;5003409;28;20050;-58
2022/01/20 10:19:53;;;;;;;5.60;3.08;;;;;;;12.10;43.98;102260.97;5001792;28;20042;-57
2022/01/20 10:22:23;;;;;;;5.65;2.17;;;;;;;12.13;44.29;102263.66;5007837;28;20070;-54
2022/01/20 10:25:09;;;;;;;8.70;2.88;;;;;;;12.30;42.81;102253.72;4999213;28;20116;-57
2022/01/20 10:27:54;;;;;;;4.65;0.70;;;;;;;12.32;40.93;102255.50;5001923;28;20645;-59
2022/01/20 10:30:27;;;;;;;4.82;2.15;;;;;;;12.31;39.24;102256.34;4999287;28;20090;-53
2022/01/20 10:32:59;;;;;;;4.03;1.75;;;;;;;12.07;41.30;102262.66;5000690;28;20057;-56
2022/01/20 10:35:36;;;;;;;7.88;2.15;;;;;;;12.06;39.64;102265.22;5004698;28;20493;-56
2022/01/20 10:38:14;;;;;;;4.90;2.45;;;;;;;12.33;42.27;102265.03;5002601;28;20061;-58
2022/01/20 10:54:09;;;;;;;4.28;1.30;;;;;;;11.03;38.52;102294.25;5069566;27;20442;-57
2022/01/20 10:56:57;;;;;;;4.65;0.98;;;;;;;10.40;39.21;102293.00;5038973;28;20064;-60
2022/01/20 10:59:26;;;;;;;4.45;0.75;;;;;;;9.96;41.66;102296.69;5036219;28;20056;-58
2022/01/20 11:02:09;;;;;;;5.90;1.15;;;;;;;9.43;42.10;102297.38;5042526;28;20056;-58
2022/01/20 11:04:38;;;;;;;5.43;1.02;;;;;;;8.97;43.52;102297.31;5009058;28;20481;-56
2022/01/20 11:07:07;;;;;;;6.13;0.82;;;;;;;8.65;43.14;102283.94;5009995;28;20057;-58
2022/01/20 11:09:43;;;;;;;5.90;0.95;;;;;;;8.56;44.41;102294.81;5009368;28;20447;-57
2022/01/20 11:12:12;;;;;;;1.52;0.50;;;;;;;8.39;44.92;102300.91;5007559;28;20114;-56
2022/01/20 11:14:42;;;;;;;5.93;1.55;;;;;;;8.13;44.32;102291.22;5004314;28;20116;-59
2022/01/20 11:17:16;;;;;;;3.47;0.60;;;;;;;7.86;45.71;102294.34;5010884;28;20065;-59
2022/01/20 11:19:45;;;;;;;5.00;1.02;;;;;;;7.61;45.17;102288.09;5011032;28;20053;-58
2022/01/20 11:22:14;;;;;;;5.82;0.90;;;;;;;7.33;46.34;102292.00;5029879;28;20049;-57
2022/01/20 11:24:43;;;;;;;5.20;0.90;;;;;;;7.18;46.85;102293.03;5041238;28;20124;-57
2022/01/20 11:27:13;;;;;;;4.30;0.80;;;;;;;6.93;46.52;102291.81;5035365;28;20053;-56
2022/01/20 11:29:46;;;;;;;2.15;0.88;;;;;;;6.90;48.22;102291.69;5042751;28;20053;-57
2022/01/20 11:32:22;;;;;;;2.08;0.55;;;;;;;6.75;48.09;102285.81;5037702;28;20045;-57
2022/01/20 11:34:59;;;;;;;5.15;0.75;;;;;;;6.59;47.15;102285.03;5044299;28;20037;-58
2022/01/20 11:37:28;;;;;;;4.80;0.60;;;;;;;6.51;46.99;102287.22;5040068;28;20546;-60
2022/01/20 11:40:09;;;;;;;;;;;;;;;6.35;47.82;102290.69;5041725;28;20053;-59
2022/01/20 11:42:35;;;;;;;2.75;0.90;;;;;;;6.34;48.27;102288.94;5034380;28;19921;-57
2022/01/20 11:45:21;;;;;;;2.88;0.93;;;;;;;6.35;48.67;102294.97;5037740;28;20091;-56
2022/01/20 11:47:48;;;;;;;4.00;0.75;;;;;;;6.45;49.01;102286.03;5033965;28;20053;-59
2022/01/20 11:50:17;;;;;;;5.35;0.70;;;;;;;6.38;47.84;102290.84;5041353;28;20568;-59
2022/01/20 11:52:44;;;;;;;5.43;0.63;;;;;;;6.29;47.80;102287.81;5039647;28;20042;-57
2022/01/20 11:55:26;;;;;;;5.97;0.70;;;;;;;6.18;49.44;102292.41;5022165;28;20045;-57
2022/01/20 11:57:53;;;;;;;9.73;1.33;;;;;;;6.21;48.48;102296.84;5022966;28;20045;-58
2022/01/20 12:00:24;;;;;;;2.60;0.88;;;;;;;6.11;49.83;102286.06;5025291;28;20049;-57
2022/01/20 12:02:52;;;;;;;6.00;0.68;;;;;;;5.98;49.37;102293.94;5022894;28;20042;-56
2022/01/20 12:05:28;;;;;;;2.75;0.80;;;;;;;5.83;49.13;102284.59;5023935;28;20050;-58
2022/01/20 12:08:14;;;;;;;5.72;0.93;;;;;;;5.73;48.67;102283.22;5023510;28;20140;-57
2022/01/20 12:10:43;;;;;;;6.18;0.55;;;;;;;5.76;50.56;102285.06;5018255;28;20057;-58
2022/01/20 12:13:16;;;;;;;4.53;1.30;;;;;;;5.73;50.02;102278.06;5021694;28;20046;-58
2022/01/20 12:15:53;;;;;;;2.90;1.02;;;;;;;5.60;50.29;102288.50;5021535;28;20099;-58
2022/01/20 12:18:20;;;;;;;6.75;0.98;;;;;;;5.53;50.90;102283.03;5025302;28;20509;-57
2022/01/20 12:20:47;;;;;;;1.77;0.60;;;;;;;5.44;50.77;102294.50;5020397;28;20045;-58
2022/01/20 12:23:14;;;;;;;2.80;0.57;;;;;;;5.24;50.31;102287.44;5026472;28;20041;-58
2022/01/20 12:25:41;;;;;;;4.47;0.85;;;;;;;5.19;51.18;102295.69;5021402;28;20053;-58
2022/01/20 12:28:11;;;;;;;7.43;0.93;;;;;;;5.13;51.38;102289.44;5023412;28;20054;-54
2022/01/20 12:30:47;;;;;;;8.68;1.17;;;;;;;5.08;51.79;102285.72;5023739;28;20044;-57
2022/01/20 12:33:19;;;;;;;6.50;0.90;;;;;;;5.00;51.65;102280.16;5024871;28;20054;-56
2022/01/20 12:35:49;;;;;;;8.68;0.95;;;;;;;4.96;51.33;102285.03;5020502;28;20061;-55
2022/01/20 12:38:25;;;;;;;2.60;0.93;;;;;;;4.87;51.32;102281.13;5021663;28;20049;-54
2022/01/20 12:41:12;;;;;;;5.30;1.35;;;;;;;4.77;50.88;102278.84;5025864;28;20054;-56
2022/01/20 12:43:56;;;;;;;8.75;0.82;;;;;;;4.77;51.20;102278.84;5021532;28;20088;-53